createdAt,value
2018-06-08T00:00:32.634Z,70.59
2018-06-08T00:03:01.401Z,70.65
2018-06-08T00:05:30.062Z,70.85
2018-06-08T00:07:59.825Z,70.83
2018-06-08T00:10:35.661Z,70.64
2018-06-08T00:13:07.380Z,70.74
2018-06-08T00:15:46.039Z,70.68
2018-06-08T00:18:14.690Z,70.64
2018-06-08T00:20:43.558Z,70.95
2018-06-08T00:23:12.332Z,70.86
2018-06-08T00:25:43.286Z,70.98
2018-06-08T00:28:29.697Z,70.87
2018-06-08T00:31:00.026Z,70.84
2018-06-08T00:36:08.607Z,70.98
2018-06-08T00:38:37.263Z,71.18
2018-06-08T00:41:06.042Z,71.05
2018-06-08T00:43:39.707Z,71.15
2018-06-08T00:46:18.018Z,71.07
2018-06-08T00:48:58.474Z,71.04
2018-06-08T00:51:27.159Z,71.25
2018-06-08T00:53:56.008Z,71.38
2018-06-08T00:57:33.637Z,71.38
2018-06-08T01:00:06.979Z,71.15
2018-06-08T01:02:46.581Z,71.40
2018-06-08T01:05:27.375Z,71.35
2018-06-08T01:08:02.078Z,71.34
2018-06-08T01:10:30.758Z,71.44
2018-06-08T01:12:59.517Z,71.43
2018-06-08T01:15:28.145Z,71.53
2018-06-08T01:18:00.054Z,71.35
2018-06-08T01:20:35.026Z,71.37
2018-06-08T01:23:06.668Z,71.47
2018-06-08T01:25:45.979Z,71.62
2018-06-08T01:28:14.623Z,71.59
2018-06-08T01:30:43.626Z,71.66
2018-06-08T01:33:12.330Z,71.60
2018-06-08T01:35:43.777Z,71.80
2018-06-08T01:38:15.098Z,71.72
2018-06-08T01:40:54.709Z,71.63
2018-06-08T01:43:23.341Z,71.78
2018-06-08T01:45:52.075Z,71.88
2018-06-08T01:48:20.742Z,72.03
2018-06-08T01:50:49.641Z,72.06
2018-06-08T01:53:23.794Z,72.08
2018-06-08T01:56:02.110Z,72.01
2018-06-08T01:58:35.458Z,72.08
2018-06-08T02:01:04.194Z,72.03
2018-06-08T02:03:33.118Z,72.06
2018-06-08T02:06:01.853Z,72.02
2018-06-08T02:08:30.627Z,72.19
2018-06-08T02:10:59.945Z,72.30
2018-06-08T02:13:30.937Z,72.17
2018-06-08T02:16:02.614Z,72.35
2018-06-08T02:18:31.225Z,72.34
2018-06-08T02:20:59.966Z,72.47
2018-06-08T02:23:28.681Z,72.64
2018-06-08T02:25:57.436Z,72.71
2018-06-08T02:28:26.935Z,72.30
2018-06-08T02:31:02.897Z,72.59
2018-06-08T02:33:35.747Z,72.67
2018-06-08T02:36:04.385Z,72.62
2018-06-08T02:38:33.036Z,72.67
2018-06-08T02:41:01.944Z,72.59
2018-06-08T02:43:31.254Z,72.65
2018-06-08T02:46:03.166Z,72.65
2018-06-08T02:48:35.098Z,72.77
2018-06-08T02:51:07.147Z,72.93
2018-06-08T02:53:35.757Z,73.00
2018-06-08T02:56:04.477Z,73.04
2018-06-08T02:58:33.241Z,72.96
2018-06-08T03:01:03.073Z,72.91
2018-06-08T03:03:38.907Z,72.98
2018-06-08T03:06:11.030Z,73.04
2018-06-08T03:08:46.281Z,73.23
2018-06-08T03:11:14.954Z,73.13
2018-06-08T03:13:44.599Z,73.32
2018-06-08T03:16:13.253Z,73.16
2018-06-08T03:18:42.194Z,73.43
2018-06-08T03:21:13.742Z,73.54
2018-06-08T03:23:46.990Z,73.39
2018-06-08T03:26:19.496Z,73.71
2018-06-08T03:28:48.106Z,73.60
2018-06-08T03:31:16.889Z,73.64
2018-06-08T03:33:45.599Z,73.55
2018-06-08T03:36:18.148Z,73.67
2018-06-08T03:38:50.727Z,73.89
2018-06-08T03:41:23.829Z,73.73
2018-06-08T03:43:53.708Z,73.78
2018-06-08T03:46:22.369Z,73.91
2018-06-08T03:48:51.054Z,74.03
2018-06-08T03:51:19.766Z,73.94
2018-06-08T03:53:51.594Z,74.16
2018-06-08T03:56:23.380Z,74.09
2018-06-08T03:58:54.975Z,74.05
2018-06-08T04:01:23.615Z,74.05
2018-06-08T04:03:52.377Z,74.25
2018-06-08T04:06:21.029Z,74.39
2018-06-08T04:08:49.648Z,74.34
2018-06-08T04:11:22.896Z,74.48
2018-06-08T04:13:58.758Z,74.33
2018-06-08T04:16:31.491Z,74.32
2018-06-08T04:19:00.130Z,74.48
2018-06-08T04:21:28.845Z,74.56
2018-06-08T04:23:57.533Z,74.50
2018-06-08T04:26:26.173Z,74.52
2018-06-08T04:28:59.195Z,74.61
2018-06-08T04:31:42.074Z,74.74
2018-06-08T04:34:19.572Z,74.66
2018-06-08T04:36:48.215Z,74.71
2018-06-08T04:39:16.822Z,74.66
2018-06-08T04:41:45.583Z,74.47
2018-06-08T04:44:14.313Z,74.75
2018-06-08T04:46:47.990Z,74.88
2018-06-08T04:49:18.950Z,74.82
2018-06-08T04:51:50.857Z,75.02
2018-06-08T04:54:19.538Z,75.26
2018-06-08T04:56:48.217Z,74.92
2018-06-08T04:59:16.831Z,75.14
2018-06-08T05:01:46.585Z,75.26
2018-06-08T05:04:19.435Z,75.32
2018-06-08T05:06:54.445Z,75.26
2018-06-08T05:09:27.043Z,75.33
2018-06-08T05:11:55.670Z,75.30
2018-06-08T05:14:24.397Z,75.29
2018-06-08T05:16:53.098Z,75.34
2018-06-08T05:19:26.006Z,75.28
2018-06-08T05:21:58.538Z,75.47
2018-06-08T05:24:30.324Z,75.66
2018-06-08T05:27:02.814Z,75.51
2018-06-08T05:29:31.446Z,75.53
2018-06-08T05:32:00.177Z,75.55
2018-06-08T05:34:28.838Z,75.55
2018-06-08T05:36:59.353Z,75.74
2018-06-08T05:39:30.695Z,75.90
2018-06-08T05:42:03.342Z,75.74
2018-06-08T05:44:35.950Z,76.13
2018-06-08T05:47:04.652Z,76.19
2018-06-08T05:49:33.406Z,76.25
2018-06-08T05:52:02.101Z,76.52
2018-06-08T05:54:35.551Z,76.92
2018-06-08T06:00:07.432Z,77.23
2018-06-08T06:02:36.190Z,77.47
2018-06-08T06:05:05.090Z,77.83
2018-06-08T06:07:33.938Z,77.92
2018-06-08T06:10:02.603Z,77.94
2018-06-08T06:15:45.682Z,78.50
2018-06-08T06:18:26.534Z,78.47
2018-06-08T06:20:55.185Z,78.50
2018-06-08T06:23:24.066Z,78.81
2018-06-08T06:25:53.725Z,78.67
2018-06-08T06:28:23.593Z,78.84
2018-06-08T06:31:14.840Z,78.84
2018-06-08T06:33:54.292Z,78.78
2018-06-08T06:36:31.359Z,78.67
2018-06-08T06:39:00.001Z,78.70
2018-06-08T06:41:28.818Z,78.60
2018-06-08T06:43:57.736Z,78.59
2018-06-08T06:46:29.255Z,78.78
2018-06-08T06:54:43.586Z,78.27
2018-06-08T06:57:12.346Z,78.37
2018-06-08T06:59:41.158Z,78.00
2018-06-08T07:02:10.339Z,77.92
2018-06-08T07:07:38.951Z,77.53
2018-06-08T07:11:01.637Z,77.46
2018-06-08T07:13:30.990Z,77.09
2018-06-08T07:15:59.794Z,77.20
2018-06-08T07:18:29.214Z,77.07
2018-06-08T07:21:00.169Z,76.82
2018-06-08T07:24:44.231Z,76.50
2018-06-08T07:27:19.264Z,76.56
2018-06-08T07:29:47.917Z,76.38
2018-06-08T07:32:16.702Z,76.09
2018-06-08T07:34:45.450Z,75.89
2018-06-08T07:37:28.324Z,75.62
2018-06-08T07:39:59.988Z,75.42
2018-06-08T07:42:42.414Z,75.49
2018-06-08T07:47:57.358Z,74.89
2018-06-08T07:50:27.549Z,74.73
2018-06-08T07:52:56.397Z,74.02
2018-06-08T07:55:26.533Z,74.23
2018-06-08T07:57:55.530Z,73.69
2018-06-08T08:00:24.559Z,73.15
2018-06-08T08:02:53.506Z,73.08
2018-06-08T08:05:22.901Z,72.71
2018-06-08T08:07:52.098Z,72.50
2018-06-08T08:10:21.540Z,72.20
2018-06-08T08:21:58.640Z,70.94
2018-06-08T08:24:27.686Z,70.11
2018-06-08T08:26:56.678Z,69.65
2018-06-08T08:38:33.982Z,68.64
2018-06-08T08:41:03.291Z,68.61
2018-06-08T08:43:32.520Z,68.66
2018-06-08T08:55:10.804Z,66.99
2018-06-08T08:57:40.199Z,66.97
2018-06-08T09:00:09.328Z,67.29
2018-06-08T09:11:47.260Z,66.52
2018-06-08T09:14:16.798Z,66.07
2018-06-08T09:16:45.939Z,66.45
2018-06-08T09:28:23.839Z,64.67
2018-06-08T09:30:56.302Z,65.01
2018-06-08T09:33:48.672Z,64.35
2018-06-08T09:48:20.360Z,63.89
2018-06-08T09:50:49.769Z,64.32
2018-06-08T10:20:45.564Z,64.03
2018-06-08T10:23:19.568Z,64.62
2018-06-08T10:25:50.801Z,64.39
2018-06-08T10:37:30.100Z,64.75
2018-06-08T10:39:59.748Z,64.92
2018-06-08T10:42:30.191Z,64.80
2018-06-08T10:54:08.276Z,64.91
2018-06-08T10:56:42.102Z,64.96
2018-06-08T10:59:11.217Z,64.22
2018-06-08T11:10:52.295Z,64.20
2018-06-08T11:13:37.027Z,64.88
2018-06-08T11:16:18.447Z,64.34
2018-06-08T11:27:56.240Z,64.90
2018-06-08T11:30:25.440Z,64.70
2018-06-08T11:32:55.022Z,64.58
2018-06-08T11:47:14.771Z,63.25
2018-06-08T11:49:44.104Z,63.29
2018-06-08T11:52:15.612Z,62.82
2018-06-08T12:03:52.657Z,62.96
2018-06-08T12:06:21.900Z,62.47
2018-06-08T12:08:51.195Z,62.63
2018-06-08T12:20:32.755Z,63.20
2018-06-08T12:23:03.721Z,62.66
2018-06-08T12:25:51.112Z,63.11
2018-06-08T12:37:31.471Z,63.38
2018-06-08T12:40:01.352Z,63.29
2018-06-08T12:42:31.237Z,63.27
2018-06-08T12:54:09.941Z,62.21
2018-06-08T12:56:39.375Z,62.88
2018-06-08T12:59:08.767Z,62.13
2018-06-08T13:10:46.644Z,61.13
2018-06-08T13:13:15.696Z,60.76
2018-06-08T13:15:44.889Z,60.86
2018-06-08T13:27:22.237Z,59.53
2018-06-08T13:29:51.300Z,59.31
2018-06-08T13:32:20.501Z,59.65
2018-06-08T13:44:18.955Z,58.35
2018-06-08T13:46:48.645Z,58.11
2018-06-08T13:49:24.665Z,58.02
2018-06-08T14:03:49.924Z,57.56
2018-06-08T14:06:23.801Z,57.77
2018-06-08T14:18:25.891Z,56.87
2018-06-08T14:20:55.830Z,56.23
2018-06-08T14:23:25.020Z,55.25
2018-06-08T14:25:56.746Z,55.27
2018-06-08T14:37:34.667Z,56.74
2018-06-08T14:40:03.794Z,57.18
2018-06-08T14:42:34.216Z,57.25
2018-06-08T14:54:12.738Z,56.51
2018-06-08T14:56:42.047Z,57.09
2018-06-08T14:59:11.041Z,56.37
2018-06-08T15:10:17.704Z,56.10
2018-06-08T15:12:46.888Z,55.74
2018-06-08T15:15:16.031Z,55.70
2018-06-08T15:26:51.625Z,51.44
2018-06-08T15:29:20.688Z,51.04
2018-06-08T15:31:50.034Z,50.48
2018-06-08T15:34:19.701Z,49.97
2018-06-08T15:45:57.259Z,49.89
2018-06-08T15:48:26.187Z,49.68
2018-06-08T15:50:55.147Z,50.74
2018-06-08T16:02:33.148Z,51.43
2018-06-08T16:05:02.377Z,51.13
2018-06-08T16:07:31.524Z,51.54
2018-06-08T16:19:09.280Z,49.06
2018-06-08T16:21:38.378Z,49.23
2018-06-08T16:24:07.469Z,48.58
2018-06-08T16:35:44.995Z,49.33
2018-06-08T16:38:14.061Z,48.85
2018-06-08T16:40:48.712Z,48.88
2018-06-08T16:52:26.734Z,51.58
2018-06-08T16:54:57.397Z,51.07
2018-06-08T16:57:26.770Z,51.81
2018-06-08T17:00:03.812Z,51.25
2018-06-08T17:08:38.557Z,52.84
2018-06-08T17:11:07.768Z,52.62
2018-06-08T17:13:36.762Z,53.00
2018-06-08T17:16:05.615Z,53.33
2018-06-08T17:18:34.803Z,53.73
2018-06-08T17:21:04.202Z,54.82
2018-06-08T17:23:33.640Z,54.81
2018-06-08T17:26:02.905Z,55.14
2018-06-08T17:28:31.797Z,55.82
2018-06-08T17:31:00.789Z,56.37
2018-06-08T17:33:29.993Z,55.97
2018-06-08T17:35:59.507Z,56.80
2018-06-08T17:38:31.117Z,56.47
2018-06-08T17:41:00.624Z,57.14
2018-06-08T17:43:29.575Z,57.48
2018-06-08T17:45:58.490Z,57.74
2018-06-08T17:48:27.431Z,57.86
2018-06-08T17:50:56.631Z,57.83
2018-06-08T17:53:30.358Z,57.60
2018-06-08T17:55:59.534Z,58.20
2018-06-08T17:58:28.590Z,57.83
2018-06-08T18:00:57.734Z,57.90
2018-06-08T18:03:26.611Z,58.22
2018-06-08T18:05:55.583Z,58.54
2018-06-08T18:08:24.685Z,59.22
2018-06-08T18:10:54.761Z,59.40
2018-06-08T18:13:23.972Z,59.27
2018-06-08T18:15:53.066Z,59.54
2018-06-08T18:18:21.906Z,59.64
2018-06-08T18:20:50.867Z,60.03
2018-06-08T18:23:19.758Z,60.21
2018-06-08T18:25:49.211Z,59.96
2018-06-08T18:28:19.438Z,60.86
2018-06-08T18:30:48.785Z,60.61
2018-06-08T18:33:18.184Z,61.36
2018-06-08T18:35:47.071Z,60.91
2018-06-08T18:38:16.027Z,61.20
2018-06-08T18:40:44.910Z,61.16
2018-06-08T18:43:14.872Z,61.93
2018-06-08T18:45:44.718Z,61.44
2018-06-08T18:48:14.407Z,61.72
2018-06-08T18:50:44.415Z,61.77
2018-06-08T18:53:13.373Z,61.98
2018-06-08T18:55:42.259Z,61.91
2018-06-08T18:58:11.226Z,62.06
2018-06-08T19:00:41.117Z,62.08
2018-06-08T19:03:12.083Z,62.36
2018-06-08T19:05:42.444Z,62.47
2018-06-08T19:08:12.777Z,63.08
2018-06-08T19:10:41.772Z,62.70
2018-06-08T19:13:21.760Z,63.33
2018-06-08T19:15:51.226Z,63.42
2018-06-08T19:18:23.118Z,63.00
2018-06-08T19:21:10.686Z,63.03
2018-06-08T19:23:51.556Z,63.22
2018-06-08T19:26:20.455Z,63.42
2018-06-08T19:28:49.223Z,63.95
2018-06-08T19:31:17.996Z,64.00
2018-06-08T19:33:47.535Z,63.63
2018-06-08T19:36:17.320Z,63.89
2018-06-08T19:38:48.128Z,63.96
2018-06-08T19:41:18.544Z,64.71
2018-06-08T19:43:47.348Z,64.31
2018-06-08T19:46:16.235Z,64.44
2018-06-08T19:48:45.144Z,65.16
2018-06-08T19:51:14.296Z,64.72
2018-06-08T19:53:44.805Z,65.11
2018-06-08T19:56:14.573Z,65.67
2018-06-08T19:58:46.145Z,65.43
2018-06-08T20:01:15.138Z,66.00
2018-06-08T20:03:44.254Z,65.52
2018-06-08T20:06:13.412Z,66.05
2018-06-08T20:08:53.515Z,66.13
2018-06-08T20:14:48.106Z,66.59
2018-06-08T20:17:17.171Z,66.71
2018-06-08T20:19:46.590Z,66.40
2018-06-08T20:22:15.595Z,66.37
2018-06-08T20:24:44.854Z,66.93
2018-06-08T20:27:14.580Z,66.53
2018-06-08T20:29:44.132Z,66.54
2018-06-08T20:32:14.070Z,67.18
2018-06-08T20:34:43.325Z,66.90
2018-06-08T20:37:12.226Z,66.75
2018-06-08T20:39:41.079Z,67.42
2018-06-08T20:42:10.513Z,67.06
2018-06-08T20:44:41.749Z,67.12
2018-06-08T20:47:12.041Z,67.37
2018-06-08T20:49:41.576Z,67.45
2018-06-08T20:52:10.604Z,67.38
2018-06-08T20:54:39.445Z,67.55
2018-06-08T20:57:29.032Z,67.62
2018-06-08T20:59:58.238Z,67.86
2018-06-08T21:02:28.515Z,68.23
2018-06-08T21:04:58.542Z,68.36
2018-06-08T21:07:30.252Z,68.45
2018-06-08T21:09:59.423Z,68.50
2018-06-08T21:12:28.269Z,68.49
2018-06-08T21:14:57.209Z,68.24
2018-06-08T21:17:28.352Z,68.00
2018-06-08T21:19:58.819Z,68.13
2018-06-08T21:22:31.286Z,68.27
2018-06-08T21:25:04.647Z,68.21
2018-06-08T21:27:33.950Z,68.85
2018-06-08T21:30:02.835Z,68.32
2018-06-08T21:32:32.140Z,68.57
2018-06-08T21:35:01.828Z,68.77
2018-06-08T21:37:31.581Z,68.61
2018-06-08T21:40:00.859Z,68.48
2018-06-08T21:42:31.409Z,68.56
2018-06-08T21:45:00.449Z,68.48
2018-06-08T21:47:29.414Z,68.99
2018-06-08T21:49:58.829Z,68.42
2018-06-08T21:52:28.712Z,68.51
2018-06-08T21:54:58.539Z,69.16
2018-06-08T21:57:28.264Z,68.77
2018-06-08T21:59:57.176Z,68.62
2018-06-08T22:02:26.047Z,68.88
2018-06-08T22:04:55.109Z,68.53
2018-06-08T22:07:24.136Z,68.87
2018-06-08T22:09:53.462Z,68.71
2018-06-08T22:12:22.590Z,68.96
2018-06-08T22:14:54.018Z,69.15
2018-06-08T22:17:23.042Z,68.86
2018-06-08T22:19:51.870Z,69.43
2018-06-08T22:22:20.827Z,69.10
2018-06-08T22:24:50.065Z,68.81
2018-06-08T22:27:19.678Z,69.28
2018-06-08T22:29:49.298Z,68.87
2018-06-08T22:32:18.551Z,68.99
2018-06-08T22:34:48.006Z,69.28
2018-06-08T22:37:16.973Z,68.69
2018-06-08T22:39:45.925Z,68.99
2018-06-08T22:42:15.281Z,69.52
2018-06-08T22:44:44.647Z,69.32
2018-06-08T22:47:14.208Z,69.21
2018-06-08T22:49:43.751Z,69.32
2018-06-08T22:52:12.557Z,69.48
2018-06-08T22:54:42.876Z,69.44
2018-06-08T22:57:11.818Z,69.55
2018-06-08T22:59:40.817Z,69.76
2018-06-08T23:02:10.491Z,69.77
2018-06-08T23:04:40.391Z,69.94
2018-06-08T23:07:10.296Z,69.92
2018-06-08T23:09:39.131Z,69.97
2018-06-08T23:12:08.023Z,70.16
2018-06-08T23:14:37.014Z,70.25
2018-06-08T23:17:06.605Z,70.12
2018-06-08T23:19:35.963Z,70.23
2018-06-08T23:22:06.384Z,70.23
2018-06-08T23:24:37.368Z,70.25
2018-06-08T23:27:06.408Z,70.36
2018-06-08T23:29:35.267Z,70.48
2018-06-08T23:32:04.460Z,70.25
2018-06-08T23:34:33.822Z,70.57
2018-06-08T23:37:02.946Z,70.44
2018-06-08T23:39:32.690Z,70.87
2018-06-08T23:42:02.590Z,70.65
2018-06-08T23:44:49.450Z,70.50
2018-06-08T23:47:21.659Z,70.65
2018-06-08T23:49:50.721Z,70.66
2018-06-08T23:52:20.868Z,70.76
2018-06-08T23:54:51.107Z,70.71
2018-06-08T23:57:21.157Z,70.70
2018-06-08T23:59:50.033Z,70.96
